sensor_id;sensor_type;location;lat;lon;timestamp;temperature;humidity
33207;DHT22;19565;46.602;11.534;2023-02-05T00:01:47;6.00;73.10
33207;DHT22;19565;46.602;11.534;2023-02-05T00:04:15;6.10;73.60
33207;DHT22;19565;46.602;11.534;2023-02-05T00:06:43;5.90;70.90
33207;DHT22;19565;46.602;11.534;2023-02-05T00:09:11;6.00;71.80
33207;DHT22;19565;46.602;11.534;2023-02-05T00:11:41;6.10;72.30
33207;DHT22;19565;46.602;11.534;2023-02-05T00:14:09;6.10;72.80
33207;DHT22;19565;46.602;11.534;2023-02-05T00:16:37;6.10;72.70
33207;DHT22;19565;46.602;11.534;2023-02-05T00:19:05;6.20;71.90
33207;DHT22;19565;46.602;11.534;2023-02-05T00:21:33;5.90;68.80
33207;DHT22;19565;46.602;11.534;2023-02-05T00:24:01;5.40;70.00
33207;DHT22;19565;46.602;11.534;2023-02-05T00:26:29;5.30;71.90
33207;DHT22;19565;46.602;11.534;2023-02-05T00:28:59;5.60;73.90
33207;DHT22;19565;46.602;11.534;2023-02-05T00:31:27;5.80;73.70
33207;DHT22;19565;46.602;11.534;2023-02-05T00:33:56;5.90;72.80
33207;DHT22;19565;46.602;11.534;2023-02-05T00:36:24;5.90;70.80
33207;DHT22;19565;46.602;11.534;2023-02-05T00:38:53;5.90;70.60
33207;DHT22;19565;46.602;11.534;2023-02-05T00:41:21;6.00;70.60
33207;DHT22;19565;46.602;11.534;2023-02-05T00:43:49;5.90;70.10
33207;DHT22;19565;46.602;11.534;2023-02-05T00:46:18;5.90;70.30
33207;DHT22;19565;46.602;11.534;2023-02-05T00:48:46;5.70;70.30
33207;DHT22;19565;46.602;11.534;2023-02-05T00:51:14;5.40;71.40
33207;DHT22;19565;46.602;11.534;2023-02-05T00:53:42;5.70;72.90
33207;DHT22;19565;46.602;11.534;2023-02-05T00:56:10;5.70;72.40
33207;DHT22;19565;46.602;11.534;2023-02-05T00:58:39;5.60;71.60
33207;DHT22;19565;46.602;11.534;2023-02-05T01:01:07;5.30;71.80
33207;DHT22;19565;46.602;11.534;2023-02-05T01:03:36;4.70;73.60
33207;DHT22;19565;46.602;11.534;2023-02-05T01:06:06;5.20;74.20
33207;DHT22;19565;46.602;11.534;2023-02-05T01:08:35;5.40;73.80
33207;DHT22;19565;46.602;11.534;2023-02-05T01:11:06;5.50;74.30
33207;DHT22;19565;46.602;11.534;2023-02-05T01:13:35;5.60;74.90
33207;DHT22;19565;46.602;11.534;2023-02-05T01:16:03;5.60;74.40
33207;DHT22;19565;46.602;11.534;2023-02-05T01:18:31;5.70;72.90
33207;DHT22;19565;46.602;11.534;2023-02-05T01:21:01;5.70;72.80
33207;DHT22;19565;46.602;11.534;2023-02-05T01:23:29;5.70;72.80
33207;DHT22;19565;46.602;11.534;2023-02-05T01:25:57;5.70;72.40
33207;DHT22;19565;46.602;11.534;2023-02-05T01:28:26;5.70;72.30
33207;DHT22;19565;46.602;11.534;2023-02-05T01:30:54;5.80;72.20
33207;DHT22;19565;46.602;11.534;2023-02-05T01:33:22;5.80;72.40
33207;DHT22;19565;46.602;11.534;2023-02-05T01:35:52;5.90;73.10
33207;DHT22;19565;46.602;11.534;2023-02-05T01:38:21;5.90;74.20
33207;DHT22;19565;46.602;11.534;2023-02-05T01:40:49;5.80;73.70
33207;DHT22;19565;46.602;11.534;2023-02-05T01:43:17;5.80;73.00
33207;DHT22;19565;46.602;11.534;2023-02-05T01:45:50;5.60;71.70
33207;DHT22;19565;46.602;11.534;2023-02-05T01:48:25;5.60;72.10
33207;DHT22;19565;46.602;11.534;2023-02-05T01:50:57;5.60;72.60
33207;DHT22;19565;46.602;11.534;2023-02-05T01:53:30;5.50;72.20
33207;DHT22;19565;46.602;11.534;2023-02-05T01:56:02;5.60;72.60
33207;DHT22;19565;46.602;11.534;2023-02-05T01:58:34;5.40;72.00
33207;DHT22;19565;46.602;11.534;2023-02-05T02:01:02;5.00;72.70
33207;DHT22;19565;46.602;11.534;2023-02-05T02:03:31;5.30;73.50
33207;DHT22;19565;46.602;11.534;2023-02-05T02:05:59;5.40;76.10
33207;DHT22;19565;46.602;11.534;2023-02-05T02:08:29;5.40;75.50
33207;DHT22;19565;46.602;11.534;2023-02-05T02:11:00;5.40;74.30
33207;DHT22;19565;46.602;11.534;2023-02-05T02:13:30;5.20;73.30
33207;DHT22;19565;46.602;11.534;2023-02-05T02:15:59;5.40;73.80
33207;DHT22;19565;46.602;11.534;2023-02-05T02:18:30;5.40;73.60
33207;DHT22;19565;46.602;11.534;2023-02-05T02:21:18;5.40;73.20
33207;DHT22;19565;46.602;11.534;2023-02-05T02:24:27;5.30;73.50
33207;DHT22;19565;46.602;11.534;2023-02-05T02:27:17;4.70;73.50
33207;DHT22;19565;46.602;11.534;2023-02-05T02:29:52;5.00;75.40
33207;DHT22;19565;46.602;11.534;2023-02-05T02:32:30;5.10;76.40
33207;DHT22;19565;46.602;11.534;2023-02-05T02:35:06;4.70;74.10
33207;DHT22;19565;46.602;11.534;2023-02-05T02:37:39;5.00;74.40
33207;DHT22;19565;46.602;11.534;2023-02-05T02:40:12;5.10;75.10
33207;DHT22;19565;46.602;11.534;2023-02-05T02:42:45;5.20;75.40
33207;DHT22;19565;46.602;11.534;2023-02-05T02:45:16;5.20;74.70
33207;DHT22;19565;46.602;11.534;2023-02-05T02:47:52;5.30;74.20
33207;DHT22;19565;46.602;11.534;2023-02-05T02:50:25;5.30;74.30
33207;DHT22;19565;46.602;11.534;2023-02-05T02:53:01;5.30;73.80
33207;DHT22;19565;46.602;11.534;2023-02-05T02:55:34;5.30;74.20
33207;DHT22;19565;46.602;11.534;2023-02-05T02:58:07;5.30;73.00
33207;DHT22;19565;46.602;11.534;2023-02-05T03:00:38;5.30;73.30
33207;DHT22;19565;46.602;11.534;2023-02-05T03:03:09;5.40;73.70
33207;DHT22;19565;46.602;11.534;2023-02-05T03:05:41;5.40;74.80
33207;DHT22;19565;46.602;11.534;2023-02-05T03:08:13;5.40;75.40
33207;DHT22;19565;46.602;11.534;2023-02-05T03:10:46;5.30;74.20
33207;DHT22;19565;46.602;11.534;2023-02-05T03:13:15;5.30;74.20
33207;DHT22;19565;46.602;11.534;2023-02-05T03:15:46;4.90;72.70
33207;DHT22;19565;46.602;11.534;2023-02-05T03:18:15;4.60;73.10
33207;DHT22;19565;46.602;11.534;2023-02-05T03:20:48;4.80;73.20
33207;DHT22;19565;46.602;11.534;2023-02-05T03:23:17;4.90;73.50
33207;DHT22;19565;46.602;11.534;2023-02-05T03:25:46;4.90;72.50
33207;DHT22;19565;46.602;11.534;2023-02-05T03:28:14;5.10;75.50
33207;DHT22;19565;46.602;11.534;2023-02-05T03:30:52;4.70;74.60
33207;DHT22;19565;46.602;11.534;2023-02-05T03:33:37;4.80;74.50
33207;DHT22;19565;46.602;11.534;2023-02-05T03:36:12;5.00;75.20
33207;DHT22;19565;46.602;11.534;2023-02-05T03:38:51;5.10;75.10
33207;DHT22;19565;46.602;11.534;2023-02-05T03:41:33;5.20;74.60
33207;DHT22;19565;46.602;11.534;2023-02-05T03:44:27;5.10;73.70
33207;DHT22;19565;46.602;11.534;2023-02-05T03:47:00;5.10;73.30
33207;DHT22;19565;46.602;11.534;2023-02-05T03:49:39;5.10;73.30
33207;DHT22;19565;46.602;11.534;2023-02-05T03:52:12;5.10;74.50
33207;DHT22;19565;46.602;11.534;2023-02-05T03:54:46;5.10;75.60
33207;DHT22;19565;46.602;11.534;2023-02-05T03:57:21;5.10;75.40
33207;DHT22;19565;46.602;11.534;2023-02-05T03:59:50;5.10;75.00
33207;DHT22;19565;46.602;11.534;2023-02-05T04:02:20;4.90;74.30
33207;DHT22;19565;46.602;11.534;2023-02-05T04:04:49;4.70;74.50
33207;DHT22;19565;46.602;11.534;2023-02-05T04:07:17;4.90;74.90
33207;DHT22;19565;46.602;11.534;2023-02-05T04:09:45;5.00;75.90
33207;DHT22;19565;46.602;11.534;2023-02-05T04:12:13;4.90;74.90
33207;DHT22;19565;46.602;11.534;2023-02-05T04:14:41;4.30;75.10
33207;DHT22;19565;46.602;11.534;2023-02-05T04:17:10;4.50;75.40
33207;DHT22;19565;46.602;11.534;2023-02-05T04:19:39;4.70;77.20
33207;DHT22;19565;46.602;11.534;2023-02-05T04:22:08;4.60;76.60
33207;DHT22;19565;46.602;11.534;2023-02-05T04:24:36;4.70;76.10
33207;DHT22;19565;46.602;11.534;2023-02-05T04:27:04;4.30;75.40
33207;DHT22;19565;46.602;11.534;2023-02-05T04:29:32;3.80;76.60
33207;DHT22;19565;46.602;11.534;2023-02-05T04:32:00;3.90;77.90
33207;DHT22;19565;46.602;11.534;2023-02-05T04:34:28;3.30;79.30
33207;DHT22;19565;46.602;11.534;2023-02-05T04:36:58;3.20;80.00
33207;DHT22;19565;46.602;11.534;2023-02-05T04:39:26;3.00;80.80
33207;DHT22;19565;46.602;11.534;2023-02-05T04:41:56;2.80;81.80
33207;DHT22;19565;46.602;11.534;2023-02-05T04:44:24;2.80;82.30
33207;DHT22;19565;46.602;11.534;2023-02-05T04:46:52;2.70;81.80
33207;DHT22;19565;46.602;11.534;2023-02-05T04:49:20;2.80;80.80
33207;DHT22;19565;46.602;11.534;2023-02-05T04:51:48;3.00;80.50
33207;DHT22;19565;46.602;11.534;2023-02-05T04:54:17;3.00;80.00
33207;DHT22;19565;46.602;11.534;2023-02-05T04:56:46;3.10;79.80
33207;DHT22;19565;46.602;11.534;2023-02-05T04:59:14;3.20;80.10
33207;DHT22;19565;46.602;11.534;2023-02-05T05:01:42;3.60;79.80
33207;DHT22;19565;46.602;11.534;2023-02-05T05:04:10;3.70;79.70
33207;DHT22;19565;46.602;11.534;2023-02-05T05:06:38;3.70;79.30
33207;DHT22;19565;46.602;11.534;2023-02-05T05:09:06;3.70;78.90
33207;DHT22;19565;46.602;11.534;2023-02-05T05:11:35;3.30;80.80
33207;DHT22;19565;46.602;11.534;2023-02-05T05:14:03;3.20;81.10
33207;DHT22;19565;46.602;11.534;2023-02-05T05:16:31;3.30;80.70
33207;DHT22;19565;46.602;11.534;2023-02-05T05:18:59;2.80;81.10
33207;DHT22;19565;46.602;11.534;2023-02-05T05:21:27;2.80;81.00
33207;DHT22;19565;46.602;11.534;2023-02-05T05:23:55;3.00;81.20
33207;DHT22;19565;46.602;11.534;2023-02-05T05:26:23;3.00;80.30
33207;DHT22;19565;46.602;11.534;2023-02-05T05:28:53;3.00;80.40
33207;DHT22;19565;46.602;11.534;2023-02-05T05:31:23;3.20;80.50
33207;DHT22;19565;46.602;11.534;2023-02-05T05:33:51;2.90;80.60
33207;DHT22;19565;46.602;11.534;2023-02-05T05:36:19;2.90;81.10
33207;DHT22;19565;46.602;11.534;2023-02-05T05:38:47;3.20;80.00
33207;DHT22;19565;46.602;11.534;2023-02-05T05:41:18;3.50;79.60
33207;DHT22;19565;46.602;11.534;2023-02-05T05:44:05;3.50;79.20
33207;DHT22;19565;46.602;11.534;2023-02-05T05:46:33;3.60;79.20
33207;DHT22;19565;46.602;11.534;2023-02-05T05:49:02;3.70;78.60
33207;DHT22;19565;46.602;11.534;2023-02-05T05:51:30;3.90;78.00
33207;DHT22;19565;46.602;11.534;2023-02-05T05:53:59;3.40;79.50
33207;DHT22;19565;46.602;11.534;2023-02-05T05:56:27;3.00;79.30
33207;DHT22;19565;46.602;11.534;2023-02-05T05:58:55;2.90;79.50
33207;DHT22;19565;46.602;11.534;2023-02-05T06:01:24;2.90;79.30
33207;DHT22;19565;46.602;11.534;2023-02-05T06:03:52;3.30;79.40
33207;DHT22;19565;46.602;11.534;2023-02-05T06:06:20;3.60;79.30
33207;DHT22;19565;46.602;11.534;2023-02-05T06:08:48;3.10;79.10
33207;DHT22;19565;46.602;11.534;2023-02-05T06:11:16;3.10;79.90
33207;DHT22;19565;46.602;11.534;2023-02-05T06:13:44;3.40;79.70
33207;DHT22;19565;46.602;11.534;2023-02-05T06:16:12;3.50;79.10
33207;DHT22;19565;46.602;11.534;2023-02-05T06:18:43;3.50;78.70
33207;DHT22;19565;46.602;11.534;2023-02-05T06:21:11;3.40;78.70
33207;DHT22;19565;46.602;11.534;2023-02-05T06:23:39;3.30;78.50
33207;DHT22;19565;46.602;11.534;2023-02-05T06:26:07;3.30;78.90
33207;DHT22;19565;46.602;11.534;2023-02-05T06:28:35;3.30;79.10
33207;DHT22;19565;46.602;11.534;2023-02-05T06:31:03;3.00;79.70
33207;DHT22;19565;46.602;11.534;2023-02-05T06:33:31;2.90;80.00
33207;DHT22;19565;46.602;11.534;2023-02-05T06:36:01;3.00;80.30
33207;DHT22;19565;46.602;11.534;2023-02-05T06:38:29;3.30;80.40
33207;DHT22;19565;46.602;11.534;2023-02-05T06:40:57;3.40;79.70
33207;DHT22;19565;46.602;11.534;2023-02-05T06:43:25;3.40;79.70
33207;DHT22;19565;46.602;11.534;2023-02-05T06:45:53;3.50;79.50
33207;DHT22;19565;46.602;11.534;2023-02-05T06:48:21;3.70;78.30
33207;DHT22;19565;46.602;11.534;2023-02-05T06:50:49;3.80;78.90
33207;DHT22;19565;46.602;11.534;2023-02-05T06:53:18;3.90;79.10
33207;DHT22;19565;46.602;11.534;2023-02-05T06:55:46;4.00;78.30
33207;DHT22;19565;46.602;11.534;2023-02-05T06:58:14;3.90;77.50
33207;DHT22;19565;46.602;11.534;2023-02-05T07:00:42;4.10;77.50
33207;DHT22;19565;46.602;11.534;2023-02-05T07:03:10;3.80;76.20
33207;DHT22;19565;46.602;11.534;2023-02-05T07:05:38;3.70;77.40
33207;DHT22;19565;46.602;11.534;2023-02-05T07:08:06;3.70;77.10
33207;DHT22;19565;46.602;11.534;2023-02-05T07:10:36;3.70;77.40
33207;DHT22;19565;46.602;11.534;2023-02-05T07:13:04;3.70;77.70
33207;DHT22;19565;46.602;11.534;2023-02-05T07:15:33;3.80;77.60
33207;DHT22;19565;46.602;11.534;2023-02-05T07:18:02;3.80;77.00
33207;DHT22;19565;46.602;11.534;2023-02-05T07:20:31;4.00;77.50
33207;DHT22;19565;46.602;11.534;2023-02-05T07:22:59;4.10;77.70
33207;DHT22;19565;46.602;11.534;2023-02-05T07:25:27;4.10;77.40
33207;DHT22;19565;46.602;11.534;2023-02-05T07:28:00;3.60;77.20
33207;DHT22;19565;46.602;11.534;2023-02-05T07:30:28;3.40;78.50
33207;DHT22;19565;46.602;11.534;2023-02-05T07:32:56;3.60;78.20
33207;DHT22;19565;46.602;11.534;2023-02-05T07:35:26;3.50;77.80
33207;DHT22;19565;46.602;11.534;2023-02-05T07:37:54;3.60;78.10
33207;DHT22;19565;46.602;11.534;2023-02-05T07:40:22;3.80;77.50
33207;DHT22;19565;46.602;11.534;2023-02-05T07:42:50;3.90;78.10
33207;DHT22;19565;46.602;11.534;2023-02-05T07:45:19;3.60;77.40
33207;DHT22;19565;46.602;11.534;2023-02-05T07:47:49;3.70;77.80
33207;DHT22;19565;46.602;11.534;2023-02-05T07:50:19;3.80;77.50
33207;DHT22;19565;46.602;11.534;2023-02-05T07:52:47;3.80;77.60
33207;DHT22;19565;46.602;11.534;2023-02-05T07:55:15;3.60;78.00
33207;DHT22;19565;46.602;11.534;2023-02-05T07:57:43;3.80;78.10
33207;DHT22;19565;46.602;11.534;2023-02-05T08:00:14;3.80;77.90
33207;DHT22;19565;46.602;11.534;2023-02-05T08:02:43;3.60;77.90
33207;DHT22;19565;46.602;11.534;2023-02-05T08:05:11;3.70;78.50
33207;DHT22;19565;46.602;11.534;2023-02-05T08:07:39;3.70;77.60
33207;DHT22;19565;46.602;11.534;2023-02-05T08:10:09;3.40;79.10
33207;DHT22;19565;46.602;11.534;2023-02-05T08:12:39;3.40;79.20
33207;DHT22;19565;46.602;11.534;2023-02-05T08:15:08;3.60;79.00
33207;DHT22;19565;46.602;11.534;2023-02-05T08:17:36;3.80;79.00
33207;DHT22;19565;46.602;11.534;2023-02-05T08:20:07;3.90;79.10
33207;DHT22;19565;46.602;11.534;2023-02-05T08:22:36;4.00;78.60
33207;DHT22;19565;46.602;11.534;2023-02-05T08:25:06;4.10;79.80
33207;DHT22;19565;46.602;11.534;2023-02-05T08:27:35;4.10;79.40
33207;DHT22;19565;46.602;11.534;2023-02-05T08:30:05;4.20;79.50
33207;DHT22;19565;46.602;11.534;2023-02-05T08:32:33;4.20;79.70
33207;DHT22;19565;46.602;11.534;2023-02-05T08:35:02;4.30;80.60
33207;DHT22;19565;46.602;11.534;2023-02-05T08:37:31;4.30;79.30
33207;DHT22;19565;46.602;11.534;2023-02-05T08:39:59;4.40;78.60
33207;DHT22;19565;46.602;11.534;2023-02-05T08:42:27;4.40;78.40
33207;DHT22;19565;46.602;11.534;2023-02-05T08:44:55;4.40;78.20
33207;DHT22;19565;46.602;11.534;2023-02-05T08:47:25;4.50;77.90
33207;DHT22;19565;46.602;11.534;2023-02-05T08:49:54;4.50;77.60
33207;DHT22;19565;46.602;11.534;2023-02-05T08:52:22;4.50;76.90
33207;DHT22;19565;46.602;11.534;2023-02-05T08:54:51;4.60;77.10
33207;DHT22;19565;46.602;11.534;2023-02-05T08:57:19;4.60;76.50
33207;DHT22;19565;46.602;11.534;2023-02-05T08:59:47;4.60;76.40
33207;DHT22;19565;46.602;11.534;2023-02-05T09:02:15;4.60;76.00
33207;DHT22;19565;46.602;11.534;2023-02-05T09:04:43;4.60;74.70
33207;DHT22;19565;46.602;11.534;2023-02-05T09:07:11;4.70;73.60
33207;DHT22;19565;46.602;11.534;2023-02-05T09:09:39;4.80;75.70
33207;DHT22;19565;46.602;11.534;2023-02-05T09:12:09;4.80;76.00
33207;DHT22;19565;46.602;11.534;2023-02-05T09:14:37;4.80;75.70
33207;DHT22;19565;46.602;11.534;2023-02-05T09:17:07;4.90;75.70
33207;DHT22;19565;46.602;11.534;2023-02-05T09:19:37;4.90;75.10
33207;DHT22;19565;46.602;11.534;2023-02-05T09:22:06;4.90;74.70
33207;DHT22;19565;46.602;11.534;2023-02-05T09:24:36;5.00;75.00
33207;DHT22;19565;46.602;11.534;2023-02-05T09:27:04;5.00;75.40
33207;DHT22;19565;46.602;11.534;2023-02-05T09:29:34;5.00;75.10
33207;DHT22;19565;46.602;11.534;2023-02-05T09:32:02;5.00;74.80
33207;DHT22;19565;46.602;11.534;2023-02-05T09:34:30;5.10;74.10
33207;DHT22;19565;46.602;11.534;2023-02-05T09:36:58;5.10;74.20
33207;DHT22;19565;46.602;11.534;2023-02-05T09:39:26;5.10;72.90
33207;DHT22;19565;46.602;11.534;2023-02-05T09:42:24;5.10;71.40
33207;DHT22;19565;46.602;11.534;2023-02-05T09:45:07;5.10;69.80
33207;DHT22;19565;46.602;11.534;2023-02-05T09:47:43;5.20;72.40
33207;DHT22;19565;46.602;11.534;2023-02-05T09:50:19;5.20;72.00
33207;DHT22;19565;46.602;11.534;2023-02-05T09:52:53;5.30;71.80
33207;DHT22;19565;46.602;11.534;2023-02-05T09:55:28;5.40;70.90
33207;DHT22;19565;46.602;11.534;2023-02-05T09:58:02;5.50;71.20
33207;DHT22;19565;46.602;11.534;2023-02-05T10:00:38;5.60;71.10
33207;DHT22;19565;46.602;11.534;2023-02-05T10:03:18;5.60;68.10
33207;DHT22;19565;46.602;11.534;2023-02-05T10:06:01;5.60;67.70
33207;DHT22;19565;46.602;11.534;2023-02-05T10:08:36;5.70;68.80
33207;DHT22;19565;46.602;11.534;2023-02-05T10:11:14;5.80;69.40
33207;DHT22;19565;46.602;11.534;2023-02-05T10:13:53;5.90;69.60
33207;DHT22;19565;46.602;11.534;2023-02-05T10:16:56;6.00;68.80
33207;DHT22;19565;46.602;11.534;2023-02-05T10:22:31;6.10;67.90
33207;DHT22;19565;46.602;11.534;2023-02-05T10:28:08;6.30;68.20
33207;DHT22;19565;46.602;11.534;2023-02-05T10:30:43;6.30;68.30
33207;DHT22;19565;46.602;11.534;2023-02-05T10:33:17;6.40;67.70
33207;DHT22;19565;46.602;11.534;2023-02-05T10:35:50;6.50;66.50
33207;DHT22;19565;46.602;11.534;2023-02-05T10:38:24;6.50;66.30
33207;DHT22;19565;46.602;11.534;2023-02-05T10:40:57;6.60;65.80
33207;DHT22;19565;46.602;11.534;2023-02-05T10:43:30;6.60;64.30
33207;DHT22;19565;46.602;11.534;2023-02-05T10:46:00;6.70;64.60
33207;DHT22;19565;46.602;11.534;2023-02-05T10:48:40;6.80;63.60
33207;DHT22;19565;46.602;11.534;2023-02-05T10:51:13;6.80;62.90
33207;DHT22;19565;46.602;11.534;2023-02-05T10:53:42;6.90;61.20
33207;DHT22;19565;46.602;11.534;2023-02-05T10:56:15;6.90;61.90
33207;DHT22;19565;46.602;11.534;2023-02-05T10:58:49;6.90;62.50
33207;DHT22;19565;46.602;11.534;2023-02-05T11:01:21;7.00;63.40
33207;DHT22;19565;46.602;11.534;2023-02-05T11:03:58;7.00;63.10
33207;DHT22;19565;46.602;11.534;2023-02-05T11:06:30;7.00;62.90
33207;DHT22;19565;46.602;11.534;2023-02-05T11:08:59;7.00;62.50
33207;DHT22;19565;46.602;11.534;2023-02-05T11:11:29;7.00;62.30
33207;DHT22;19565;46.602;11.534;2023-02-05T11:13:59;7.10;62.60
33207;DHT22;19565;46.602;11.534;2023-02-05T11:16:36;7.10;62.80
33207;DHT22;19565;46.602;11.534;2023-02-05T11:19:16;7.10;63.30
33207;DHT22;19565;46.602;11.534;2023-02-05T11:21:48;7.10;63.30
33207;DHT22;19565;46.602;11.534;2023-02-05T11:24:28;7.20;62.80
33207;DHT22;19565;46.602;11.534;2023-02-05T11:27:24;7.20;60.00
33207;DHT22;19565;46.602;11.534;2023-02-05T11:29:52;7.20;58.50
33207;DHT22;19565;46.602;11.534;2023-02-05T11:32:23;7.30;58.50
33207;DHT22;19565;46.602;11.534;2023-02-05T11:35:19;7.30;58.90
33207;DHT22;19565;46.602;11.534;2023-02-05T11:37:49;7.40;59.50
33207;DHT22;19565;46.602;11.534;2023-02-05T11:40:25;7.50;58.60
33207;DHT22;19565;46.602;11.534;2023-02-05T11:43:02;7.60;58.90
33207;DHT22;19565;46.602;11.534;2023-02-05T11:45:32;7.70;58.10
33207;DHT22;19565;46.602;11.534;2023-02-05T11:48:03;7.80;56.60
33207;DHT22;19565;46.602;11.534;2023-02-05T11:50:33;7.80;56.30
33207;DHT22;19565;46.602;11.534;2023-02-05T11:53:11;7.90;57.90
33207;DHT22;19565;46.602;11.534;2023-02-05T11:55:42;7.90;56.30
33207;DHT22;19565;46.602;11.534;2023-02-05T11:58:20;8.10;57.30
33207;DHT22;19565;46.602;11.534;2023-02-05T12:01:04;8.10;57.20
33207;DHT22;19565;46.602;11.534;2023-02-05T12:03:33;8.30;56.40
33207;DHT22;19565;46.602;11.534;2023-02-05T12:06:13;8.30;56.10
33207;DHT22;19565;46.602;11.534;2023-02-05T12:08:47;8.40;56.20
33207;DHT22;19565;46.602;11.534;2023-02-05T12:11:25;8.40;57.00
33207;DHT22;19565;46.602;11.534;2023-02-05T12:14:02;8.50;56.80
33207;DHT22;19565;46.602;11.534;2023-02-05T12:16:42;8.50;56.30
33207;DHT22;19565;46.602;11.534;2023-02-05T12:19:17;8.50;55.70
33207;DHT22;19565;46.602;11.534;2023-02-05T12:21:50;8.50;55.00
33207;DHT22;19565;46.602;11.534;2023-02-05T12:24:45;8.60;54.00
33207;DHT22;19565;46.602;11.534;2023-02-05T12:27:26;8.60;54.40
33207;DHT22;19565;46.602;11.534;2023-02-05T12:30:10;8.60;53.90
33207;DHT22;19565;46.602;11.534;2023-02-05T12:32:48;8.60;55.10
33207;DHT22;19565;46.602;11.534;2023-02-05T12:35:32;8.70;55.50
33207;DHT22;19565;46.602;11.534;2023-02-05T12:38:11;8.70;56.60
33207;DHT22;19565;46.602;11.534;2023-02-05T12:40:58;8.70;54.50
33207;DHT22;19565;46.602;11.534;2023-02-05T12:43:36;8.80;55.30
33207;DHT22;19565;46.602;11.534;2023-02-05T12:46:25;8.80;57.50
33207;DHT22;19565;46.602;11.534;2023-02-05T12:49:06;8.80;56.90
33207;DHT22;19565;46.602;11.534;2023-02-05T12:51:50;8.90;57.00
33207;DHT22;19565;46.602;11.534;2023-02-05T12:54:41;8.90;51.00
33207;DHT22;19565;46.602;11.534;2023-02-05T12:57:18;9.00;53.40
33207;DHT22;19565;46.602;11.534;2023-02-05T12:59:50;9.00;54.50
33207;DHT22;19565;46.602;11.534;2023-02-05T13:02:26;9.10;55.00
33207;DHT22;19565;46.602;11.534;2023-02-05T13:05:04;9.10;54.90
33207;DHT22;19565;46.602;11.534;2023-02-05T13:07:36;9.20;54.80
33207;DHT22;19565;46.602;11.534;2023-02-05T13:10:15;9.20;54.80
33207;DHT22;19565;46.602;11.534;2023-02-05T13:12:48;9.20;54.70
33207;DHT22;19565;46.602;11.534;2023-02-05T13:15:19;9.20;54.90
33207;DHT22;19565;46.602;11.534;2023-02-05T13:17:55;9.20;53.60
33207;DHT22;19565;46.602;11.534;2023-02-05T13:20:27;9.30;55.10
33207;DHT22;19565;46.602;11.534;2023-02-05T13:23:10;9.30;55.70
33207;DHT22;19565;46.602;11.534;2023-02-05T13:25:58;9.30;52.00
33207;DHT22;19565;46.602;11.534;2023-02-05T13:28:47;9.30;48.90
33207;DHT22;19565;46.602;11.534;2023-02-05T13:31:29;9.40;43.80
33207;DHT22;19565;46.602;11.534;2023-02-05T13:34:02;9.40;40.70
33207;DHT22;19565;46.602;11.534;2023-02-05T13:37:03;9.60;35.90
33207;DHT22;19565;46.602;11.534;2023-02-05T13:40:00;9.70;32.70
33207;DHT22;19565;46.602;11.534;2023-02-05T13:42:50;9.80;32.10
33207;DHT22;19565;46.602;11.534;2023-02-05T13:45:41;9.90;32.00
33207;DHT22;19565;46.602;11.534;2023-02-05T13:48:28;9.90;32.30
33207;DHT22;19565;46.602;11.534;2023-02-05T13:51:23;9.90;32.20
33207;DHT22;19565;46.602;11.534;2023-02-05T13:54:02;9.90;33.00
33207;DHT22;19565;46.602;11.534;2023-02-05T13:56:59;10.00;31.80
33207;DHT22;19565;46.602;11.534;2023-02-05T13:59:36;10.00;32.50
33207;DHT22;19565;46.602;11.534;2023-02-05T14:02:25;9.90;33.00
33207;DHT22;19565;46.602;11.534;2023-02-05T14:04:56;9.90;33.90
33207;DHT22;19565;46.602;11.534;2023-02-05T14:07:26;10.00;33.50
33207;DHT22;19565;46.602;11.534;2023-02-05T14:09:57;9.90;33.80
33207;DHT22;19565;46.602;11.534;2023-02-05T14:12:28;9.90;34.70
33207;DHT22;19565;46.602;11.534;2023-02-05T14:15:33;9.90;35.00
33207;DHT22;19565;46.602;11.534;2023-02-05T14:18:02;9.90;34.80
33207;DHT22;19565;46.602;11.534;2023-02-05T14:20:36;9.90;35.00
33207;DHT22;19565;46.602;11.534;2023-02-05T14:23:13;9.90;34.80
33207;DHT22;19565;46.602;11.534;2023-02-05T14:28:46;10.00;35.90
33207;DHT22;19565;46.602;11.534;2023-02-05T14:34:45;10.00;35.70
33207;DHT22;19565;46.602;11.534;2023-02-05T14:37:32;10.00;36.50
33207;DHT22;19565;46.602;11.534;2023-02-05T14:40:25;10.00;36.10
33207;DHT22;19565;46.602;11.534;2023-02-05T14:42:56;10.00;36.10
33207;DHT22;19565;46.602;11.534;2023-02-05T14:45:42;10.00;36.20
33207;DHT22;19565;46.602;11.534;2023-02-05T14:48:19;9.90;36.80
33207;DHT22;19565;46.602;11.534;2023-02-05T14:51:02;9.90;38.30
33207;DHT22;19565;46.602;11.534;2023-02-05T14:53:32;9.90;36.90
33207;DHT22;19565;46.602;11.534;2023-02-05T14:56:01;9.90;37.70
33207;DHT22;19565;46.602;11.534;2023-02-05T14:58:33;9.80;37.80
33207;DHT22;19565;46.602;11.534;2023-02-05T15:01:39;9.80;38.40
33207;DHT22;19565;46.602;11.534;2023-02-05T15:04:21;9.80;38.30
33207;DHT22;19565;46.602;11.534;2023-02-05T15:06:53;9.70;38.70
33207;DHT22;19565;46.602;11.534;2023-02-05T15:09:32;9.70;39.30
33207;DHT22;19565;46.602;11.534;2023-02-05T15:12:20;9.60;38.80
33207;DHT22;19565;46.602;11.534;2023-02-05T15:14:55;9.60;39.30
33207;DHT22;19565;46.602;11.534;2023-02-05T15:17:45;9.60;40.60
33207;DHT22;19565;46.602;11.534;2023-02-05T15:20:24;9.60;41.40
33207;DHT22;19565;46.602;11.534;2023-02-05T15:23:00;9.50;40.50
33207;DHT22;19565;46.602;11.534;2023-02-05T15:25:38;9.50;40.60
33207;DHT22;19565;46.602;11.534;2023-02-05T15:28:26;9.50;41.10
33207;DHT22;19565;46.602;11.534;2023-02-05T15:33:58;9.50;41.80
33207;DHT22;19565;46.602;11.534;2023-02-05T15:36:33;9.40;42.40
33207;DHT22;19565;46.602;11.534;2023-02-05T15:39:12;9.30;41.90
33207;DHT22;19565;46.602;11.534;2023-02-05T15:41:42;9.30;42.80
33207;DHT22;19565;46.602;11.534;2023-02-05T15:44:20;9.30;42.60
33207;DHT22;19565;46.602;11.534;2023-02-05T15:46:49;9.20;41.60
33207;DHT22;19565;46.602;11.534;2023-02-05T15:49:20;9.20;41.10
33207;DHT22;19565;46.602;11.534;2023-02-05T15:51:51;9.20;42.00
33207;DHT22;19565;46.602;11.534;2023-02-05T15:54:20;9.20;42.80
33207;DHT22;19565;46.602;11.534;2023-02-05T15:56:51;9.20;43.60
33207;DHT22;19565;46.602;11.534;2023-02-05T15:59:22;9.20;43.90
33207;DHT22;19565;46.602;11.534;2023-02-05T16:01:59;9.10;43.00
33207;DHT22;19565;46.602;11.534;2023-02-05T16:04:30;9.10;43.20
33207;DHT22;19565;46.602;11.534;2023-02-05T16:06:59;9.00;43.80
33207;DHT22;19565;46.602;11.534;2023-02-05T16:09:29;9.00;44.30
33207;DHT22;19565;46.602;11.534;2023-02-05T16:12:10;8.90;44.20
33207;DHT22;19565;46.602;11.534;2023-02-05T16:14:38;8.90;44.90
33207;DHT22;19565;46.602;11.534;2023-02-05T16:17:09;8.90;45.80
33207;DHT22;19565;46.602;11.534;2023-02-05T16:19:44;8.80;45.80
33207;DHT22;19565;46.602;11.534;2023-02-05T16:22:24;8.80;46.60